Time;durP1;ratioP1;P1;durP2;ratioP2;P2;SDS_P1;SDS_P2;PMS_P1;PMS_P2;Temp;Humidity;BMP_temperature;BMP_pressure;BME280_temperature;BME280_humidity;BME280_pressure;Samples;Min_cycle;Max_cycle;Signal;HPM_P1;HPM_P2
2022/11/30 00:01:13;;;;;;;110.13;43.53;;;8.50;99.90;;;;;;5075089;28;20449;-69
2022/11/30 00:03:40;;;;;;;104.83;40.97;;;8.50;99.90;;;;;;5077152;28;20474;-69
2022/11/30 00:06:08;;;;;;;121.23;45.17;;;8.50;99.90;;;;;;5076407;28;20438;-69
2022/11/30 00:08:37;;;;;;;101.20;40.20;;;8.50;99.90;;;;;;5075052;28;20488;-69
2022/11/30 00:11:09;;;;;;;102.03;41.37;;;8.50;99.90;;;;;;5075561;28;20450;-69
2022/11/30 00:13:35;;;;;;;110.60;40.60;;;8.60;99.90;;;;;;5074845;28;20465;-69
2022/11/30 00:16:02;;;;;;;102.93;42.37;;;8.60;99.90;;;;;;5075063;28;20811;-69
2022/11/30 00:18:29;;;;;;;105.80;41.13;;;8.60;99.90;;;;;;5074916;28;20447;-70
2022/11/30 00:20:59;;;;;;;113.63;40.30;;;8.60;99.90;;;;;;5074751;28;20505;-69
2022/11/30 00:23:26;;;;;;;106.77;41.87;;;8.60;99.90;;;;;;5074995;28;20465;-70
2022/11/30 00:25:54;;;;;;;92.93;38.27;;;8.60;99.90;;;;;;5074666;28;20821;-69
2022/11/30 00:28:21;;;;;;;91.73;37.90;;;8.70;99.90;;;;;;5074789;28;20852;-69
2022/11/30 00:30:57;;;;;;;118.83;39.90;;;8.70;99.90;;;;;;5078383;28;20446;-69
2022/11/30 00:33:24;;;;;;;116.83;41.10;;;8.60;99.90;;;;;;5078983;28;20526;-69
2022/11/30 00:35:56;;;;;;;101.47;37.17;;;8.60;99.90;;;;;;5078924;28;20855;-69
2022/11/30 00:38:23;;;;;;;115.37;37.70;;;8.60;99.90;;;;;;5078742;28;20945;-69
2022/11/30 00:40:50;;;;;;;142.40;41.60;;;8.70;99.90;;;;;;5078585;28;20999;-69
2022/11/30 00:43:18;;;;;;;105.53;39.00;;;8.70;99.90;;;;;;5078803;28;20482;-69
2022/11/30 00:45:45;;;;;;;103.03;39.03;;;8.70;99.90;;;;;;5078876;28;20525;-69
2022/11/30 00:48:12;;;;;;;107.43;38.10;;;8.70;99.90;;;;;;5078675;28;20479;-69
2022/11/30 00:50:39;;;;;;;122.87;41.63;;;8.70;99.90;;;;;;5078627;28;20456;-69
2022/11/30 00:53:05;;;;;;;112.00;42.17;;;8.60;99.90;;;;;;5078554;28;20469;-69
2022/11/30 00:55:32;;;;;;;96.83;35.30;;;8.70;99.90;;;;;;5078449;28;21073;-68
2022/11/30 00:57:59;;;;;;;103.97;38.60;;;8.60;99.90;;;;;;5078465;28;20450;-68
2022/11/30 01:00:28;;;;;;;105.53;35.47;;;8.60;99.90;;;;;;5079022;28;20446;-68
2022/11/30 01:02:56;;;;;;;94.87;36.17;;;8.60;99.90;;;;;;5079707;28;20471;-68
2022/11/30 01:05:23;;;;;;;100.37;36.83;;;8.60;99.90;;;;;;5079625;28;20538;-68
2022/11/30 01:07:50;;;;;;;98.17;35.50;;;8.60;99.90;;;;;;5080998;28;20466;-69
2022/11/30 01:10:17;;;;;;;93.23;34.73;;;8.60;99.90;;;;;;5082151;28;20445;-68
2022/11/30 01:12:43;;;;;;;99.83;36.40;;;8.60;99.90;;;;;;5083357;28;20470;-68
2022/11/30 01:15:11;;;;;;;97.33;35.90;;;8.60;99.90;;;;;;5083495;28;20446;-68
2022/11/30 01:17:39;;;;;;;81.77;35.67;;;8.60;99.90;;;;;;5080933;28;20433;-68
2022/11/30 01:20:07;;;;;;;92.30;36.07;;;8.60;99.90;;;;;;5078912;28;20445;-68
2022/11/30 01:22:34;;;;;;;84.83;33.50;;;8.60;99.90;;;;;;5061080;28;20501;-68
2022/11/30 01:25:01;;;;;;;81.40;33.37;;;8.60;99.90;;;;;;5077935;28;20452;-68
2022/11/30 01:27:28;;;;;;;77.77;32.97;;;8.60;99.90;;;;;;5078417;28;20466;-68
2022/11/30 01:29:54;;;;;;;68.30;30.70;;;8.70;99.90;;;;;;5078525;28;20446;-68
2022/11/30 01:32:21;;;;;;;76.30;31.83;;;8.70;99.90;;;;;;5078411;28;20470;-68
2022/11/30 01:34:49;;;;;;;69.60;32.67;;;8.70;99.90;;;;;;5078576;28;20451;-68
2022/11/30 01:37:16;;;;;;;76.70;31.57;;;8.70;99.90;;;;;;5078082;28;20457;-68
2022/11/30 01:39:43;;;;;;;71.87;31.07;;;8.80;99.90;;;;;;5077091;28;20446;-68
2022/11/30 01:42:14;;;;;;;73.03;31.60;;;8.80;99.90;;;;;;5077551;28;20477;-68
2022/11/30 01:44:53;;;;;;;79.53;33.97;;;8.80;99.90;;;;;;5077988;28;20427;-68
2022/11/30 01:47:25;;;;;;;93.87;34.50;;;8.80;99.90;;;;;;5078307;28;20491;-68
2022/11/30 01:49:57;;;;;;;81.23;35.23;;;8.80;99.90;;;;;;5078065;28;20503;-68
2022/11/30 01:52:27;;;;;;;86.60;34.20;;;8.70;99.90;;;;;;5077380;28;20552;-68
2022/11/30 01:54:58;;;;;;;79.27;34.10;;;8.70;99.90;;;;;;5077841;28;20462;-69
2022/11/30 01:57:27;;;;;;;88.53;33.10;;;8.70;99.90;;;;;;5077805;28;20430;-69
2022/11/30 01:59:57;;;;;;;93.93;32.93;;;8.70;99.90;;;;;;5077891;28;20454;-69
2022/11/30 02:02:30;;;;;;;94.37;34.90;;;8.70;99.90;;;;;;5078419;28;20469;-69
2022/11/30 02:04:59;;;;;;;91.33;34.80;;;8.70;99.90;;;;;;5079423;28;20423;-69
2022/11/30 02:07:27;;;;;;;92.60;34.63;;;8.70;99.90;;;;;;5079042;28;20482;-69
2022/11/30 02:09:54;;;;;;;109.47;38.70;;;8.70;99.90;;;;;;5079609;28;20434;-69
2022/11/30 02:12:28;;;;;;;108.80;36.57;;;8.70;99.90;;;;;;5080195;28;20983;-69
2022/11/30 02:15:01;;;;;;;119.07;39.27;;;8.70;99.90;;;;;;5080129;28;20445;-69
2022/11/30 02:17:39;;;;;;;87.70;34.77;;;8.70;99.90;;;;;;5062180;28;20434;-69
2022/11/30 02:20:28;;;;;;;95.50;35.97;;;8.70;99.90;;;;;;5078890;28;20442;-69
2022/11/30 02:23:14;;;;;;;111.97;35.60;;;8.70;99.90;;;;;;5079456;28;20976;-69
2022/11/30 02:25:52;;;;;;;100.23;36.13;;;8.70;99.90;;;;;;5080123;28;20445;-69
2022/11/30 02:28:41;;;;;;;104.57;34.20;;;8.70;99.90;;;;;;5079273;28;20470;-69
2022/11/30 02:31:14;;;;;;;100.43;34.97;;;8.70;99.90;;;;;;5079133;28;20434;-69
2022/11/30 02:33:43;;;;;;;90.03;35.97;;;8.70;99.90;;;;;;5079286;28;20464;-68
2022/11/30 02:36:10;;;;;;;86.63;34.37;;;8.70;99.90;;;;;;5078938;28;20533;-69
2022/11/30 02:38:39;;;;;;;105.67;34.47;;;8.80;99.90;;;;;;5078592;28;20426;-69
2022/11/30 02:41:06;;;;;;;91.07;34.47;;;8.80;99.90;;;;;;5078789;28;20513;-69
2022/11/30 02:43:35;;;;;;;105.70;35.37;;;8.80;99.90;;;;;;5078964;28;20469;-68
2022/11/30 02:46:09;;;;;;;87.17;33.90;;;8.80;99.90;;;;;;5079541;28;20455;-69
2022/11/30 02:48:43;;;;;;;83.93;34.57;;;8.80;99.90;;;;;;5079499;28;20476;-69
2022/11/30 02:51:15;;;;;;;91.80;33.20;;;8.80;99.90;;;;;;5078255;28;20426;-69
2022/11/30 02:53:42;;;;;;;104.03;34.20;;;8.90;99.90;;;;;;5079983;28;20474;-69
2022/11/30 02:56:09;;;;;;;90.90;33.53;;;8.80;99.90;;;;;;5081533;28;20466;-69
2022/11/30 02:58:38;;;;;;;73.70;33.90;;;8.80;99.90;;;;;;5062245;28;20443;-69
2022/11/30 03:01:04;;;;;;;88.97;31.90;;;8.90;99.90;;;;;;5080096;28;20461;-69
2022/11/30 03:03:31;;;;;;;90.63;33.20;;;8.80;99.90;;;;;;5081701;28;20468;-69
2022/11/30 03:05:58;;;;;;;119.10;34.33;;;8.90;99.90;;;;;;5061771;28;20965;-69
2022/11/30 03:08:25;;;;;;;76.70;33.47;;;8.80;99.90;;;;;;5080124;28;20485;-69
2022/11/30 03:10:51;;;;;;;89.37;33.50;;;8.80;99.90;;;;;;5080601;28;20431;-69
2022/11/30 03:13:18;;;;;;;84.10;31.07;;;8.90;99.90;;;;;;5079561;28;20835;-69
2022/11/30 03:15:46;;;;;;;80.23;34.60;;;8.90;99.90;;;;;;5080685;28;20446;-69
2022/11/30 03:18:13;;;;;;;83.53;35.00;;;8.90;99.90;;;;;;5080534;28;20427;-69
2022/11/30 03:20:40;;;;;;;76.27;32.03;;;9.00;99.90;;;;;;5082269;28;20477;-69
2022/11/30 03:23:07;;;;;;;73.40;33.33;;;9.00;99.90;;;;;;5083062;28;20463;-69
2022/11/30 03:25:34;;;;;;;88.10;32.07;;;9.00;99.90;;;;;;5080887;28;20446;-69
2022/11/30 03:28:01;;;;;;;71.13;31.10;;;9.10;99.90;;;;;;5081246;28;20543;-69
2022/11/30 03:30:28;;;;;;;80.30;33.20;;;9.00;99.90;;;;;;5081768;28;20456;-68
2022/11/30 03:32:56;;;;;;;68.43;32.60;;;9.00;99.90;;;;;;5082480;28;20487;-69
2022/11/30 03:35:23;;;;;;;67.10;30.40;;;9.00;99.90;;;;;;5081860;28;20453;-69
2022/11/30 03:37:49;;;;;;;81.67;33.20;;;9.00;99.90;;;;;;5081765;28;20468;-69
2022/11/30 03:40:17;;;;;;;75.47;32.93;;;9.10;99.90;;;;;;5081800;28;20979;-69
2022/11/30 03:42:44;;;;;;;84.70;35.83;;;9.10;99.90;;;;;;5084126;28;20478;-69
2022/11/30 03:45:12;;;;;;;74.87;34.10;;;9.10;99.90;;;;;;5085005;28;20534;-69
2022/11/30 03:47:38;;;;;;;84.30;34.10;;;9.10;99.90;;;;;;5085455;28;20941;-69
2022/11/30 03:50:08;;;;;;;70.40;30.70;;;9.10;99.90;;;;;;5086032;28;20447;-68
2022/11/30 03:52:35;;;;;;;62.77;31.50;;;9.10;99.90;;;;;;5087449;28;20461;-68
2022/11/30 03:55:01;;;;;;;62.20;31.77;;;9.10;99.90;;;;;;5094078;28;20465;-69
2022/11/30 03:57:28;;;;;;;50.80;29.70;;;9.10;99.90;;;;;;5098493;28;20452;-68
2022/11/30 03:59:55;;;;;;;53.43;28.77;;;9.20;99.90;;;;;;5097392;28;20444;-68
2022/11/30 04:02:21;;;;;;;44.93;27.83;;;9.20;99.90;;;;;;5097748;28;20454;-69
2022/11/30 04:04:48;;;;;;;49.83;28.87;;;9.20;99.90;;;;;;5096816;28;20425;-69
2022/11/30 04:07:16;;;;;;;44.33;26.90;;;9.20;99.90;;;;;;5096967;28;20488;-68
2022/11/30 04:09:43;;;;;;;43.60;25.03;;;9.20;99.90;;;;;;5096125;28;20470;-69
2022/11/30 04:12:10;;;;;;;41.90;27.53;;;9.20;99.90;;;;;;5094565;28;20459;-69
2022/11/30 04:14:36;;;;;;;42.17;27.33;;;9.30;99.90;;;;;;5091927;28;20444;-69
2022/11/30 04:17:03;;;;;;;42.67;26.83;;;9.30;99.90;;;;;;5089835;28;20463;-69
2022/11/30 04:19:30;;;;;;;40.23;26.00;;;9.30;99.90;;;;;;5088526;28;20450;-69
2022/11/30 04:21:57;;;;;;;36.60;24.40;;;9.30;99.90;;;;;;5084522;28;20460;-69
2022/11/30 04:24:27;;;;;;;37.40;24.63;;;9.30;99.90;;;;;;5086121;28;20447;-69
2022/11/30 04:26:53;;;;;;;36.90;23.60;;;9.30;99.90;;;;;;5095085;28;20423;-69
2022/11/30 04:29:20;;;;;;;46.10;27.10;;;9.20;99.90;;;;;;5092820;28;20542;-69
2022/11/30 04:31:48;;;;;;;44.73;26.77;;;9.30;99.90;;;;;;5070209;28;20436;-69
2022/11/30 04:34:15;;;;;;;38.70;25.30;;;9.30;99.90;;;;;;5089222;28;20452;-69
2022/11/30 04:36:42;;;;;;;38.47;24.97;;;9.30;99.90;;;;;;5090896;28;20467;-69
2022/11/30 04:39:08;;;;;;;34.60;24.23;;;9.30;99.90;;;;;;5090431;28;20452;-69
2022/11/30 04:41:37;;;;;;;39.23;23.10;;;9.30;99.90;;;;;;5086525;28;20443;-69
2022/11/30 04:44:03;;;;;;;43.63;27.77;;;9.30;99.90;;;;;;5081291;28;20920;-69
2022/11/30 04:46:30;;;;;;;40.27;26.03;;;9.20;99.90;;;;;;5079325;28;20531;-69
2022/11/30 04:48:57;;;;;;;42.87;26.67;;;9.20;99.90;;;;;;5077109;28;20484;-69
2022/11/30 04:51:23;;;;;;;43.23;27.87;;;9.20;99.90;;;;;;5075211;28;20476;-69
2022/11/30 04:53:50;;;;;;;44.63;28.73;;;9.30;99.90;;;;;;5074523;28;20475;-69
2022/11/30 04:56:17;;;;;;;43.93;27.47;;;9.20;99.90;;;;;;5074077;28;20848;-70
2022/11/30 04:58:45;;;;;;;43.90;27.33;;;9.30;99.90;;;;;;5074536;28;20451;-70
2022/11/30 05:01:12;;;;;;;43.53;30.30;;;9.30;99.90;;;;;;5074431;28;20456;-69
2022/11/30 05:03:38;;;;;;;43.90;29.33;;;9.30;99.90;;;;;;5075193;28;20831;-70
2022/11/30 05:06:06;;;;;;;44.87;29.27;;;9.30;99.90;;;;;;5075484;28;20452;-70
2022/11/30 05:08:32;;;;;;;47.70;27.17;;;9.30;99.90;;;;;;5074586;28;20474;-69
2022/11/30 05:10:59;;;;;;;51.13;30.87;;;9.20;99.90;;;;;;5075852;28;20801;-69
2022/11/30 05:13:26;;;;;;;44.30;29.47;;;9.20;99.90;;;;;;5074508;28;20474;-69
2022/11/30 05:15:54;;;;;;;45.73;29.93;;;9.10;99.90;;;;;;5077452;28;20455;-70
2022/11/30 05:18:22;;;;;;;42.83;28.37;;;9.10;99.90;;;;;;5078358;28;20439;-69
2022/11/30 05:20:49;;;;;;;42.90;27.43;;;9.10;99.90;;;;;;5078175;28;20446;-69
2022/11/30 05:23:16;;;;;;;39.40;26.60;;;9.10;99.90;;;;;;5078494;28;20474;-69
2022/11/30 05:25:43;;;;;;;38.43;27.67;;;9.10;99.90;;;;;;5078272;28;20459;-69
2022/11/30 05:28:10;;;;;;;46.40;28.13;;;9.10;99.90;;;;;;5078449;28;20460;-69
2022/11/30 05:30:38;;;;;;;38.70;26.43;;;9.10;99.90;;;;;;5079422;28;20448;-70
2022/11/30 05:33:06;;;;;;;37.33;24.47;;;9.00;99.90;;;;;;5078531;28;20471;-69
2022/11/30 05:35:33;;;;;;;36.63;25.63;;;9.00;99.90;;;;;;5078359;28;20480;-69
2022/11/30 05:37:59;;;;;;;40.33;27.33;;;9.00;99.90;;;;;;5078097;28;20459;-70
2022/11/30 05:40:27;;;;;;;36.27;24.27;;;9.00;99.90;;;;;;5078230;28;20478;-70
2022/11/30 05:42:56;;;;;;;37.33;27.03;;;9.10;99.90;;;;;;5077347;28;20475;-70
2022/11/30 05:45:23;;;;;;;38.83;26.80;;;9.10;99.90;;;;;;5077366;28;20455;-69
2022/11/30 05:47:49;;;;;;;41.97;27.47;;;9.10;99.90;;;;;;5077019;28;20460;-69
2022/11/30 05:50:18;;;;;;;39.87;25.33;;;9.10;99.90;;;;;;5077359;28;20486;-69
2022/11/30 05:52:44;;;;;;;44.30;25.60;;;9.10;99.90;;;;;;5077271;28;20471;-69
2022/11/30 05:55:11;;;;;;;37.93;25.80;;;9.10;99.90;;;;;;5077330;28;20455;-69
2022/11/30 05:57:39;;;;;;;35.60;24.70;;;9.10;99.90;;;;;;5077299;28;20459;-69
2022/11/30 06:00:08;;;;;;;41.23;28.40;;;9.20;99.90;;;;;;5078771;28;20445;-69
2022/11/30 06:02:35;;;;;;;41.50;26.17;;;9.10;99.90;;;;;;5080259;28;20474;-69
2022/11/30 06:05:02;;;;;;;37.17;25.83;;;9.20;99.90;;;;;;5077362;28;20442;-69
2022/11/30 06:07:30;;;;;;;38.47;26.17;;;9.10;99.90;;;;;;5076921;28;20969;-69
2022/11/30 06:09:57;;;;;;;39.57;27.13;;;9.10;99.90;;;;;;5077656;28;20537;-69
2022/11/30 06:12:24;;;;;;;41.20;25.30;;;9.10;99.90;;;;;;5077519;28;20494;-69
2022/11/30 06:14:50;;;;;;;36.37;25.87;;;9.10;99.90;;;;;;5077490;28;20432;-69
2022/11/30 06:17:17;;;;;;;41.00;26.63;;;9.10;99.90;;;;;;5076599;28;20457;-69
2022/11/30 06:19:44;;;;;;;33.20;25.17;;;9.20;99.90;;;;;;5077328;28;20819;-69
2022/11/30 06:22:11;;;;;;;41.30;27.73;;;9.10;99.90;;;;;;5077203;28;20550;-69
2022/11/30 06:24:39;;;;;;;36.60;25.97;;;9.20;99.90;;;;;;5076706;28;20448;-69
2022/11/30 06:27:06;;;;;;;35.63;26.13;;;9.10;99.90;;;;;;5076165;28;20459;-69
2022/11/30 06:29:32;;;;;;;40.70;27.03;;;9.10;99.90;;;;;;5076682;28;20471;-69
2022/11/30 06:31:59;;;;;;;41.20;28.63;;;9.20;99.90;;;;;;5076913;28;20441;-69
2022/11/30 06:34:26;;;;;;;37.90;27.07;;;9.10;99.90;;;;;;5076541;28;20473;-69
2022/11/30 06:36:52;;;;;;;37.50;25.97;;;9.10;99.90;;;;;;5076437;28;20470;-69
2022/11/30 06:39:19;;;;;;;35.53;27.27;;;9.10;99.90;;;;;;5076592;28;20456;-69
2022/11/30 06:41:47;;;;;;;35.30;25.30;;;9.10;99.90;;;;;;5076929;28;20433;-69
2022/11/30 06:44:14;;;;;;;35.57;24.77;;;9.10;99.90;;;;;;5077276;28;20474;-69
2022/11/30 06:46:41;;;;;;;30.57;23.17;;;9.10;99.90;;;;;;5077442;28;20537;-69
2022/11/30 06:49:07;;;;;;;34.60;24.43;;;9.00;99.90;;;;;;5076509;28;20483;-69
2022/11/30 06:51:36;;;;;;;33.20;24.50;;;9.00;99.90;;;;;;5076609;28;20453;-69
2022/11/30 06:54:02;;;;;;;34.23;24.73;;;9.00;99.90;;;;;;5076279;28;20559;-69
2022/11/30 06:56:29;;;;;;;34.30;23.37;;;9.00;99.90;;;;;;5075669;28;21023;-69
2022/11/30 06:58:57;;;;;;;34.37;23.40;;;9.00;99.90;;;;;;5076066;28;20439;-69
2022/11/30 07:01:24;;;;;;;31.10;21.87;;;9.00;99.90;;;;;;5076243;28;20451;-69
2022/11/30 07:03:51;;;;;;;30.03;22.53;;;9.00;99.90;;;;;;5075749;28;20470;-69
2022/11/30 07:06:17;;;;;;;32.60;22.33;;;9.00;99.90;;;;;;5075612;28;20451;-69
2022/11/30 07:08:44;;;;;;;30.07;21.30;;;9.00;99.90;;;;;;5076002;28;20451;-69
2022/11/30 07:11:12;;;;;;;29.43;22.00;;;8.90;99.90;;;;;;5076182;28;20453;-69
2022/11/30 07:13:39;;;;;;;32.97;23.67;;;8.90;99.90;;;;;;5076015;28;20472;-69
2022/11/30 07:16:10;;;;;;;31.13;21.83;;;8.90;99.90;;;;;;5075992;28;20445;-69
2022/11/30 07:18:37;;;;;;;33.90;22.97;;;8.80;99.90;;;;;;5075678;28;20443;-69
2022/11/30 07:21:05;;;;;;;33.50;22.07;;;8.80;99.90;;;;;;5075564;28;20453;-69
2022/11/30 07:26:16;;;;;;;30.23;21.57;;;8.80;99.90;;;;;;5076071;28;20552;-69
2022/11/30 07:28:45;;;;;;;25.77;20.40;;;8.70;99.90;;;;;;5075766;28;20940;-69
2022/11/30 07:31:20;;;;;;;29.23;20.37;;;8.60;99.90;;;;;;5076382;28;20430;-69
2022/11/30 07:33:47;;;;;;;26.70;19.97;;;8.60;99.90;;;;;;5075578;28;20470;-69
2022/11/30 07:36:14;;;;;;;28.00;20.23;;;8.60;99.90;;;;;;5076253;28;20456;-69
2022/11/30 07:38:41;;;;;;;26.97;20.60;;;8.50;99.90;;;;;;5075471;28;20933;-69
2022/11/30 07:41:08;;;;;;;28.93;21.97;;;8.60;99.90;;;;;;5076091;28;20450;-69
2022/11/30 07:43:34;;;;;;;26.17;20.20;;;8.50;99.90;;;;;;5076737;28;20469;-69
2022/11/30 07:46:01;;;;;;;29.80;22.17;;;8.50;99.90;;;;;;5075927;28;20432;-69
2022/11/30 07:48:30;;;;;;;29.43;20.93;;;8.40;99.90;;;;;;5075702;28;20519;-69
2022/11/30 07:51:02;;;;;;;29.53;20.97;;;8.40;99.90;;;;;;5075260;28;20487;-69
2022/11/30 07:53:30;;;;;;;30.60;20.47;;;8.40;99.90;;;;;;5075598;28;20464;-69
2022/11/30 07:56:01;;;;;;;29.37;21.37;;;8.40;99.90;;;;;;5076317;28;20503;-69
2022/11/30 07:58:28;;;;;;;31.47;21.57;;;8.40;99.90;;;;;;5075466;28;20444;-69
2022/11/30 08:00:55;;;;;;;33.60;21.30;;;8.40;99.90;;;;;;5075117;28;20817;-69
2022/11/30 08:03:22;;;;;;;31.80;22.90;;;8.40;99.90;;;;;;5075531;28;20470;-69
2022/11/30 08:05:50;;;;;;;33.63;22.20;;;8.40;99.90;;;;;;5074825;28;20454;-69
2022/11/30 08:08:17;;;;;;;32.03;19.70;;;8.30;99.90;;;;;;5074544;28;20953;-69
2022/11/30 08:10:43;;;;;;;28.07;20.80;;;8.30;99.90;;;;;;5074711;28;20488;-69
2022/11/30 08:13:10;;;;;;;30.10;20.90;;;8.30;99.90;;;;;;5074720;28;20470;-69
2022/11/30 08:15:37;;;;;;;30.90;20.93;;;8.30;99.90;;;;;;5075236;28;20453;-69
2022/11/30 08:18:05;;;;;;;29.10;20.80;;;8.30;99.90;;;;;;5074387;28;20452;-69
2022/11/30 08:20:32;;;;;;;26.70;20.23;;;8.30;99.90;;;;;;5075208;28;20450;-69
2022/11/30 08:23:00;;;;;;;25.47;19.70;;;8.30;99.90;;;;;;5074735;28;20462;-69
2022/11/30 08:25:27;;;;;;;26.20;19.10;;;8.30;99.90;;;;;;5074643;28;20453;-69
2022/11/30 08:27:54;;;;;;;28.77;21.60;;;8.30;99.90;;;;;;5074965;28;20444;-69
2022/11/30 08:30:21;;;;;;;29.40;19.87;;;8.30;99.90;;;;;;5074879;28;20476;-69
2022/11/30 08:32:48;;;;;;;29.17;20.47;;;8.40;99.90;;;;;;5074740;28;20528;-69
2022/11/30 08:35:15;;;;;;;28.63;23.43;;;8.40;99.90;;;;;;5074584;28;20935;-69
2022/11/30 08:37:41;;;;;;;28.70;21.60;;;8.40;99.90;;;;;;5074398;28;20462;-69
2022/11/30 08:40:10;;;;;;;35.70;24.57;;;8.40;99.90;;;;;;5074297;28;20830;-69
2022/11/30 08:42:37;;;;;;;34.40;25.07;;;8.50;99.90;;;;;;5075258;28;20473;-69
2022/11/30 08:45:05;;;;;;;35.90;24.70;;;8.50;99.90;;;;;;5075066;28;20773;-69
2022/11/30 08:47:31;;;;;;;36.30;24.43;;;8.50;99.90;;;;;;5074589;28;20445;-69
2022/11/30 08:49:59;;;;;;;37.10;26.17;;;8.50;99.90;;;;;;5076046;28;20484;-69
2022/11/30 08:52:27;;;;;;;36.00;25.87;;;8.50;99.90;;;;;;5078263;28;20499;-70
2022/11/30 08:54:54;;;;;;;37.77;25.23;;;8.50;99.90;;;;;;5078171;28;20430;-69
2022/11/30 08:57:22;;;;;;;35.83;26.23;;;8.50;99.90;;;;;;5079122;28;20528;-70
2022/11/30 08:59:49;;;;;;;39.43;26.43;;;8.60;99.90;;;;;;5083721;28;20440;-69
2022/11/30 09:02:17;;;;;;;35.97;25.00;;;8.60;99.90;;;;;;5079840;28;20489;-69
2022/11/30 09:04:45;;;;;;;41.30;26.70;;;8.60;99.90;;;;;;5078648;28;20457;-69
2022/11/30 09:07:12;;;;;;;36.97;25.67;;;8.60;99.90;;;;;;5078165;28;20543;-70
2022/11/30 09:09:39;;;;;;;38.37;27.67;;;8.60;99.90;;;;;;5079269;28;20493;-70
2022/11/30 09:12:07;;;;;;;39.50;27.17;;;8.70;99.90;;;;;;5078898;28;20449;-69
2022/11/30 09:14:35;;;;;;;42.27;26.80;;;8.70;99.90;;;;;;5079106;28;20438;-69
2022/11/30 09:17:02;;;;;;;42.93;28.63;;;8.70;99.90;;;;;;5080218;28;20819;-70
2022/11/30 09:19:29;;;;;;;39.93;26.37;;;8.80;99.90;;;;;;5079976;28;20442;-69
2022/11/30 09:21:55;;;;;;;32.33;23.40;;;8.80;99.90;;;;;;5079794;28;20430;-70
2022/11/30 09:24:22;;;;;;;35.80;25.47;;;8.80;99.90;;;;;;5080421;28;20444;-70
2022/11/30 09:26:49;;;;;;;35.20;24.50;;;8.80;99.90;;;;;;5080998;28;20438;-69
2022/11/30 09:29:15;;;;;;;38.60;25.57;;;8.80;99.90;;;;;;5080137;28;20451;-69
2022/11/30 09:31:44;;;;;;;38.30;26.63;;;8.80;99.90;;;;;;5080683;28;20454;-70
2022/11/30 09:34:11;;;;;;;36.50;24.70;;;8.80;99.90;;;;;;5079289;28;20477;-70
2022/11/30 09:36:38;;;;;;;37.30;26.97;;;8.90;99.90;;;;;;5078544;28;20952;-70
2022/11/30 09:39:06;;;;;;;35.03;25.70;;;8.90;99.90;;;;;;5078831;28;20446;-69
2022/11/30 09:42:02;;;;;;;41.43;28.43;;;8.80;99.90;;;;;;5079777;28;20446;-70
2022/11/30 09:44:37;;;;;;;36.03;26.60;;;8.80;99.90;;;;;;5079303;28;20469;-70
2022/11/30 09:47:21;;;;;;;38.53;25.40;;;8.80;99.90;;;;;;5079817;28;20472;-70
2022/11/30 09:49:48;;;;;;;46.20;27.97;;;8.80;99.90;;;;;;5080446;28;20475;-70
2022/11/30 09:52:20;;;;;;;34.47;23.83;;;8.80;99.90;;;;;;5079702;28;20991;-69
2022/11/30 09:54:47;;;;;;;35.73;25.37;;;8.80;99.90;;;;;;5061025;28;20435;-69
2022/11/30 09:57:25;;;;;;;41.90;30.43;;;8.80;99.90;;;;;;5079930;28;20452;-70
2022/11/30 09:59:55;;;;;;;49.37;32.20;;;8.90;99.90;;;;;;5079384;28;20434;-69
2022/11/30 10:02:28;;;;;;;52.07;33.03;;;8.90;99.90;;;;;;5078005;28;20475;-69
2022/11/30 10:04:55;;;;;;;57.53;38.93;;;8.90;99.90;;;;;;5079379;28;20934;-69
2022/11/30 10:07:41;;;;;;;61.83;37.90;;;9.00;99.90;;;;;;5079492;28;20435;-69
2022/11/30 10:10:18;;;;;;;70.00;43.30;;;9.00;99.90;;;;;;5079337;28;20474;-69
2022/11/30 10:12:51;;;;;;;68.33;41.33;;;9.10;99.90;;;;;;5079060;28;20482;-70
2022/11/30 10:15:28;;;;;;;58.27;39.40;;;9.10;99.90;;;;;;5079002;28;20493;-70
2022/11/30 10:18:02;;;;;;;66.30;41.83;;;9.10;99.90;;;;;;5079258;28;20497;-70
2022/11/30 10:20:41;;;;;;;44.87;33.37;;;9.10;99.90;;;;;;5079362;28;20431;-70
2022/11/30 10:23:32;;;;;;;56.90;39.90;;;9.20;99.90;;;;;;5079042;28;20468;-70
2022/11/30 10:26:06;;;;;;;49.50;35.53;;;9.20;99.90;;;;;;5080283;28;20448;-70
2022/11/30 10:28:43;;;;;;;50.97;35.07;;;9.20;99.90;;;;;;5079330;28;20437;-70
2022/11/30 10:31:12;;;;;;;51.53;35.33;;;9.30;99.90;;;;;;5080227;28;20472;-70
2022/11/30 10:33:46;;;;;;;48.63;37.50;;;9.30;99.90;;;;;;5078963;28;21005;-70
2022/11/30 10:36:17;;;;;;;45.00;32.73;;;9.30;99.90;;;;;;5078665;28;20462;-70
2022/11/30 10:38:47;;;;;;;60.87;40.83;;;9.30;99.90;;;;;;5078891;28;20447;-70
2022/11/30 10:41:17;;;;;;;51.40;33.03;;;9.30;99.90;;;;;;5080428;28;20430;-70
2022/11/30 10:43:47;;;;;;;41.30;29.77;;;9.30;99.90;;;;;;5080129;28;20468;-70
2022/11/30 10:46:20;;;;;;;39.77;27.90;;;9.40;99.90;;;;;;5078664;28;20443;-70
2022/11/30 10:48:54;;;;;;;38.77;27.13;;;9.40;99.90;;;;;;5078378;28;20436;-70
2022/11/30 10:51:21;;;;;;;36.67;24.97;;;9.40;99.90;;;;;;5078744;28;20471;-70
2022/11/30 10:53:48;;;;;;;35.93;24.60;;;9.40;99.90;;;;;;5079026;28;20471;-70
2022/11/30 10:56:15;;;;;;;33.83;23.57;;;9.50;99.90;;;;;;5079300;28;20821;-70
2022/11/30 10:58:53;;;;;;;36.17;25.90;;;9.50;99.90;;;;;;5079423;28;20479;-70
2022/11/30 11:01:32;;;;;;;36.50;24.60;;;9.40;99.90;;;;;;5079390;28;20807;-70
2022/11/30 11:04:13;;;;;;;36.10;25.90;;;9.40;99.90;;;;;;5079805;28;20471;-70
2022/11/30 11:06:44;;;;;;;32.10;22.13;;;9.40;99.90;;;;;;5079595;28;20434;-70
2022/11/30 11:09:39;;;;;;;37.87;25.43;;;9.40;99.90;;;;;;5079532;28;20458;-70
2022/11/30 11:12:14;;;;;;;41.37;26.73;;;9.50;99.90;;;;;;5044045;28;20451;-70
2022/11/30 11:14:42;;;;;;;34.83;23.97;;;9.50;99.90;;;;;;5080215;28;20437;-70
2022/11/30 11:17:22;;;;;;;41.43;27.80;;;9.50;99.90;;;;;;5079906;28;20451;-70
2022/11/30 11:19:51;;;;;;;37.83;26.10;;;9.50;99.90;;;;;;5080003;28;20446;-70
2022/11/30 11:22:20;;;;;;;36.47;26.70;;;9.50;99.90;;;;;;5079337;28;20986;-70
2022/11/30 11:24:48;;;;;;;37.20;25.57;;;9.50;99.90;;;;;;5080133;28;20466;-70
2022/11/30 11:27:24;;;;;;;36.43;24.60;;;9.50;99.90;;;;;;5081685;28;20464;-70
2022/11/30 11:30:01;;;;;;;33.10;24.00;;;9.50;99.90;;;;;;5081156;28;20445;-70
2022/11/30 11:32:29;;;;;;;33.87;25.30;;;9.50;99.90;;;;;;5080940;28;20483;-70
2022/11/30 11:34:58;;;;;;;38.63;26.90;;;9.50;99.90;;;;;;5081041;28;20451;-71
2022/11/30 11:37:27;;;;;;;37.50;26.63;;;9.50;99.90;;;;;;5080392;28;20482;-70
2022/11/30 11:39:59;;;;;;;38.73;25.63;;;9.50;99.90;;;;;;5082322;28;20967;-70
2022/11/30 11:42:28;;;;;;;37.53;24.60;;;9.50;99.90;;;;;;5082254;28;20475;-70
2022/11/30 11:44:58;;;;;;;39.97;25.90;;;9.50;99.90;;;;;;5082328;28;20448;-70
2022/11/30 11:47:27;;;;;;;40.07;25.20;;;9.50;99.90;;;;;;5082358;28;20459;-71
2022/11/30 11:50:21;;;;;;;38.90;25.30;;;9.50;99.90;;;;;;5082297;28;20447;-70
2022/11/30 11:52:47;;;;;;;37.10;24.57;;;9.60;99.90;;;;;;5079621;28;20479;-70
2022/11/30 11:55:17;;;;;;;36.17;26.80;;;9.60;99.90;;;;;;5082776;28;20455;-70
2022/11/30 11:57:48;;;;;;;33.47;23.50;;;9.60;99.90;;;;;;5091709;28;20915;-70
2022/11/30 12:00:18;;;;;;;33.20;24.03;;;9.60;99.90;;;;;;5087110;28;20903;-70
2022/11/30 12:02:53;;;;;;;31.60;24.07;;;9.60;99.90;;;;;;5083241;28;20464;-70
2022/11/30 12:05:26;;;;;;;32.93;24.37;;;9.50;99.90;;;;;;5082485;28;20431;-71
2022/11/30 12:08:06;;;;;;;34.77;24.00;;;9.60;99.90;;;;;;5081276;28;20520;-71
2022/11/30 12:10:38;;;;;;;40.13;26.03;;;9.60;99.90;;;;;;5081761;28;20991;-71
2022/11/30 12:13:15;;;;;;;35.97;23.53;;;9.60;99.90;;;;;;5077934;28;20472;-71
2022/11/30 12:15:55;;;;;;;32.70;23.40;;;9.60;99.90;;;;;;5076284;28;20431;-70
2022/11/30 12:18:25;;;;;;;37.03;25.40;;;9.60;99.90;;;;;;5077202;28;20525;-70
2022/11/30 12:21:00;;;;;;;35.07;24.00;;;9.60;99.90;;;;;;5077349;28;20448;-70
2022/11/30 12:23:54;;;;;;;32.83;24.07;;;9.60;99.90;;;;;;5081529;28;20567;-71
2022/11/30 12:26:32;;;;;;;29.90;22.80;;;9.60;99.90;;;;;;5088098;28;20431;-71
2022/11/30 12:29:20;;;;;;;38.10;25.20;;;9.60;99.90;;;;;;5088900;28;20423;-71
2022/11/30 12:32:02;;;;;;;37.63;24.70;;;9.60;99.90;;;;;;5088550;28;20474;-70
2022/11/30 12:34:41;;;;;;;34.83;24.80;;;9.70;99.90;;;;;;5087804;28;20439;-70
2022/11/30 12:37:16;;;;;;;34.50;24.60;;;9.70;99.90;;;;;;5088269;28;20465;-70
2022/11/30 12:39:53;;;;;;;37.07;22.80;;;9.70;99.90;;;;;;5088475;28;20434;-70
2022/11/30 12:42:26;;;;;;;33.27;22.97;;;9.70;99.90;;;;;;5087992;28;21012;-71
2022/11/30 12:45:00;;;;;;;35.63;24.10;;;9.70;99.90;;;;;;5089371;28;20442;-71
2022/11/30 12:47:40;;;;;;;31.70;22.93;;;9.70;99.90;;;;;;5088047;28;20435;-70
2022/11/30 12:50:22;;;;;;;33.17;23.70;;;9.80;99.90;;;;;;5086692;28;20432;-70